createdAt,value
2018-10-07T00:01:56.492Z,16.69
2018-10-07T00:04:02.580Z,16.68
2018-10-07T00:06:08.740Z,16.67
2018-10-07T00:08:14.868Z,16.68
2018-10-07T00:10:21.528Z,16.69
2018-10-07T00:12:27.703Z,16.70
2018-10-07T00:14:33.796Z,16.68
2018-10-07T00:16:39.897Z,16.65
2018-10-07T00:18:46.033Z,16.61
2018-10-07T00:20:52.146Z,16.57
2018-10-07T00:22:58.258Z,16.55
2018-10-07T00:25:04.393Z,16.54
2018-10-07T00:27:10.584Z,16.49
2018-10-07T00:29:16.851Z,16.45
2018-10-07T00:31:22.983Z,16.43
2018-10-07T00:33:29.150Z,16.42
2018-10-07T00:35:35.264Z,16.41
2018-10-07T00:37:41.379Z,16.42
2018-10-07T00:39:47.520Z,16.40
2018-10-07T00:41:53.668Z,16.37
2018-10-07T00:43:59.736Z,16.35
2018-10-07T00:46:05.869Z,16.34
2018-10-07T00:48:12.053Z,16.32
2018-10-07T00:50:18.156Z,16.33
2018-10-07T00:52:24.304Z,16.32
2018-10-07T00:54:30.406Z,16.33
2018-10-07T00:56:36.497Z,16.35
2018-10-07T00:58:42.605Z,16.35
2018-10-07T01:00:48.714Z,16.37
2018-10-07T01:02:55.046Z,16.38
2018-10-07T01:05:01.132Z,16.41
2018-10-07T01:07:07.224Z,16.41
2018-10-07T01:09:13.827Z,16.38
2018-10-07T01:11:19.920Z,16.34
2018-10-07T01:13:26.911Z,16.29
2018-10-07T01:15:33.024Z,16.22
2018-10-07T01:17:39.114Z,16.18
2018-10-07T01:19:45.212Z,16.14
2018-10-07T01:21:51.332Z,16.10
2018-10-07T01:23:57.497Z,16.10
2018-10-07T01:26:03.842Z,16.08
2018-10-07T01:28:09.920Z,16.06
2018-10-07T01:30:17.571Z,16.05
2018-10-07T01:32:23.705Z,16.02
2018-10-07T01:34:29.816Z,16.03
2018-10-07T01:36:35.878Z,16.04
2018-10-07T01:38:41.952Z,16.09
2018-10-07T01:40:48.095Z,16.12
2018-10-07T01:42:55.091Z,16.15
2018-10-07T01:45:01.201Z,16.19
2018-10-07T01:47:07.419Z,16.21
2018-10-07T01:49:13.471Z,16.21
2018-10-07T01:51:19.683Z,16.16
2018-10-07T01:53:26.055Z,16.14
2018-10-07T01:55:32.176Z,16.14
2018-10-07T01:57:38.299Z,16.10
2018-10-07T01:59:44.382Z,16.04
2018-10-07T02:01:50.526Z,15.98
2018-10-07T02:03:56.664Z,15.91
2018-10-07T02:06:02.780Z,15.85
2018-10-07T02:08:08.926Z,15.78
2018-10-07T02:10:15.082Z,15.72
2018-10-07T02:12:21.176Z,15.67
2018-10-07T02:14:27.245Z,15.63
2018-10-07T02:16:33.997Z,15.63
2018-10-07T02:18:40.060Z,15.63
2018-10-07T02:20:46.236Z,15.60
2018-10-07T02:22:52.308Z,15.59
2018-10-07T02:24:58.449Z,15.61
2018-10-07T02:27:04.545Z,15.64
2018-10-07T02:29:10.661Z,15.61
2018-10-07T02:31:16.720Z,15.56
2018-10-07T02:33:22.820Z,15.50
2018-10-07T02:35:29.291Z,15.43
2018-10-07T02:37:35.404Z,15.41
2018-10-07T02:39:41.483Z,15.41
2018-10-07T02:41:47.551Z,15.41
2018-10-07T02:43:53.646Z,15.40
2018-10-07T02:45:59.742Z,15.34
2018-10-07T02:48:06.067Z,15.28
2018-10-07T02:50:20.021Z,15.22
2018-10-07T02:52:31.149Z,15.16
2018-10-07T02:54:37.341Z,15.11
2018-10-07T02:56:43.765Z,15.08
2018-10-07T02:58:50.013Z,15.06
2018-10-07T03:00:56.132Z,15.08
2018-10-07T03:03:02.328Z,15.13
2018-10-07T03:05:08.508Z,15.15
2018-10-07T03:07:15.276Z,15.15
2018-10-07T03:09:21.520Z,15.14
2018-10-07T03:11:27.584Z,15.11
2018-10-07T03:13:33.675Z,15.07
2018-10-07T03:15:39.777Z,15.02
2018-10-07T03:17:45.936Z,14.98
2018-10-07T03:19:52.280Z,14.99
2018-10-07T03:21:58.499Z,15.03
2018-10-07T03:24:04.781Z,15.09
2018-10-07T03:26:12.350Z,15.15
2018-10-07T03:28:18.537Z,15.19
2018-10-07T03:30:25.180Z,15.17
2018-10-07T03:32:31.261Z,15.14
2018-10-07T03:34:37.433Z,15.11
2018-10-07T03:36:43.566Z,15.11
2018-10-07T03:38:49.651Z,15.12
2018-10-07T03:40:55.813Z,15.12
2018-10-07T03:43:02.448Z,15.13
2018-10-07T03:45:08.708Z,15.11
2018-10-07T03:47:14.824Z,15.07
2018-10-07T03:49:20.909Z,15.02
2018-10-07T03:51:27.031Z,14.97
2018-10-07T03:53:33.148Z,14.92
2018-10-07T03:55:39.263Z,14.92
2018-10-07T03:57:45.380Z,14.94
2018-10-07T03:59:52.027Z,14.95
2018-10-07T04:01:58.373Z,14.95
2018-10-07T04:04:04.509Z,14.97
2018-10-07T04:06:10.615Z,14.97
2018-10-07T04:08:16.741Z,14.97
2018-10-07T04:10:22.809Z,14.95
2018-10-07T04:12:28.890Z,14.95
2018-10-07T04:14:35.017Z,14.97
2018-10-07T04:16:41.132Z,14.96
2018-10-07T04:18:47.231Z,14.89
2018-10-07T04:20:53.406Z,14.85
2018-10-07T04:22:59.548Z,14.83
2018-10-07T04:25:05.696Z,14.82
2018-10-07T04:27:11.800Z,14.77
2018-10-07T04:29:17.887Z,14.68
2018-10-07T04:31:24.296Z,14.60
2018-10-07T04:33:30.412Z,14.49
2018-10-07T04:35:36.539Z,14.40
2018-10-07T04:37:42.598Z,14.33
2018-10-07T04:39:48.697Z,14.31
2018-10-07T04:41:54.811Z,14.31
2018-10-07T04:44:00.947Z,14.26
2018-10-07T04:46:07.090Z,14.24
2018-10-07T04:48:13.175Z,14.23
2018-10-07T04:50:19.219Z,14.24
2018-10-07T04:52:25.333Z,14.25
2018-10-07T04:54:31.453Z,14.25
2018-10-07T04:56:37.555Z,14.27
2018-10-07T04:58:43.658Z,14.26
2018-10-07T05:00:49.729Z,14.25
2018-10-07T05:02:55.870Z,14.21
2018-10-07T05:05:01.996Z,14.15
2018-10-07T05:07:08.223Z,14.10
2018-10-07T05:09:14.345Z,14.13
2018-10-07T05:11:20.524Z,14.16
2018-10-07T05:13:28.313Z,14.21
2018-10-07T05:15:34.441Z,14.24
2018-10-07T05:17:40.590Z,14.22
2018-10-07T05:19:46.729Z,14.19
2018-10-07T05:21:52.931Z,14.17
2018-10-07T05:23:59.624Z,14.14
2018-10-07T05:26:05.812Z,14.11
2018-10-07T05:28:11.911Z,14.08
2018-10-07T05:30:18.019Z,14.06
2018-10-07T05:32:24.128Z,14.09
2018-10-07T05:34:30.249Z,14.12
2018-10-07T05:36:36.424Z,14.13
2018-10-07T05:38:42.615Z,14.15
2018-10-07T05:40:48.693Z,14.14
2018-10-07T05:42:55.456Z,14.10
2018-10-07T05:45:01.595Z,14.07
2018-10-07T05:47:07.776Z,14.04
2018-10-07T05:49:13.885Z,14.03
2018-10-07T05:51:20.049Z,14.03
2018-10-07T05:53:26.117Z,14.04
2018-10-07T05:55:32.707Z,14.05
2018-10-07T05:57:38.780Z,14.10
2018-10-07T05:59:44.913Z,14.15
2018-10-07T06:01:51.731Z,14.23
2018-10-07T06:04:43.310Z,14.32
2018-10-07T06:06:49.580Z,14.38
2018-10-07T06:08:56.714Z,14.44
2018-10-07T06:11:02.866Z,14.50
2018-10-07T06:13:09.027Z,14.55
2018-10-07T06:15:30.870Z,14.59
2018-10-07T06:17:37.071Z,14.63
2018-10-07T06:19:43.266Z,14.67
2018-10-07T06:21:49.426Z,14.70
2018-10-07T06:23:55.597Z,14.73
2018-10-07T06:26:01.692Z,14.76
2018-10-07T06:28:07.859Z,14.72
2018-10-07T06:30:14.006Z,14.68
2018-10-07T06:32:22.079Z,14.66
2018-10-07T06:34:28.949Z,14.66
2018-10-07T06:36:35.064Z,14.70
2018-10-07T06:38:41.252Z,14.75
2018-10-07T06:40:47.340Z,14.83
2018-10-07T06:42:53.561Z,14.92
2018-10-07T06:44:59.699Z,14.98
2018-10-07T06:47:05.842Z,15.03
2018-10-07T06:49:11.961Z,15.04
2018-10-07T06:51:18.176Z,15.06
2018-10-07T06:53:24.334Z,15.10
2018-10-07T06:55:30.511Z,15.14
2018-10-07T06:57:36.696Z,15.19
2018-10-07T06:59:42.846Z,15.25
2018-10-07T07:01:49.003Z,15.31
2018-10-07T07:03:55.539Z,15.36
2018-10-07T07:06:01.662Z,15.42
2018-10-07T07:08:08.468Z,15.50
2018-10-07T07:10:14.625Z,15.57
2018-10-07T07:12:20.755Z,15.65
2018-10-07T07:14:26.881Z,15.73
2018-10-07T07:16:33.093Z,15.80
2018-10-07T07:18:39.760Z,15.86
2018-10-07T07:20:45.986Z,15.92
2018-10-07T07:22:52.128Z,16.01
2018-10-07T07:24:58.201Z,16.07
2018-10-07T07:27:04.328Z,16.15
2018-10-07T07:29:10.559Z,16.20
2018-10-07T07:31:16.826Z,16.28
2018-10-07T07:33:23.130Z,16.35
2018-10-07T07:35:29.436Z,16.40
2018-10-07T07:37:35.580Z,16.46
2018-10-07T07:39:41.818Z,16.54
2018-10-07T07:41:48.020Z,16.62
2018-10-07T07:43:54.133Z,16.68
2018-10-07T07:46:00.339Z,16.76
2018-10-07T07:48:07.137Z,16.84
2018-10-07T07:50:13.289Z,16.92
2018-10-07T07:52:19.520Z,17.01
2018-10-07T07:54:25.669Z,17.06
2018-10-07T07:56:31.836Z,17.14
2018-10-07T07:58:38.025Z,17.23
2018-10-07T08:00:44.205Z,17.32
2018-10-07T08:02:50.368Z,17.43
2018-10-07T08:04:57.152Z,17.52
2018-10-07T08:07:03.334Z,17.64
2018-10-07T08:09:10.665Z,17.77
2018-10-07T08:11:16.876Z,17.89
2018-10-07T08:13:23.129Z,17.99
2018-10-07T08:15:29.336Z,18.07
2018-10-07T08:17:35.615Z,18.17
2018-10-07T08:19:41.735Z,18.25
2018-10-07T08:21:47.940Z,18.33
2018-10-07T08:23:54.135Z,18.40
2018-10-07T08:26:00.367Z,18.47
2018-10-07T08:28:06.791Z,18.55
2018-10-07T08:30:13.376Z,18.62
2018-10-07T08:32:23.391Z,18.70
2018-10-07T08:34:29.869Z,18.77
2018-10-07T08:36:36.039Z,18.84
2018-10-07T08:38:42.184Z,18.89
2018-10-07T08:40:48.378Z,18.91
2018-10-07T08:42:54.620Z,18.92
2018-10-07T08:45:00.807Z,18.94
2018-10-07T08:47:07.056Z,19.01
2018-10-07T08:49:13.221Z,19.06
2018-10-07T08:51:20.767Z,19.14
2018-10-07T08:53:26.985Z,19.23
2018-10-07T08:55:33.323Z,19.31
2018-10-07T08:57:39.496Z,19.39
2018-10-07T08:59:46.242Z,19.47
2018-10-07T09:01:52.391Z,19.54
2018-10-07T09:03:58.635Z,19.58
2018-10-07T09:06:05.058Z,19.62
2018-10-07T09:08:11.425Z,19.64
2018-10-07T09:10:17.590Z,19.67
2018-10-07T09:12:23.841Z,19.70
2018-10-07T09:14:30.015Z,19.73
2018-10-07T09:16:36.557Z,19.74
2018-10-07T09:18:42.836Z,19.74
2018-10-07T09:20:49.035Z,19.72
2018-10-07T09:22:55.153Z,19.70
2018-10-07T09:25:01.309Z,19.68
2018-10-07T09:27:07.596Z,19.65
2018-10-07T09:29:13.783Z,19.62
2018-10-07T09:31:20.144Z,19.63
2018-10-07T09:33:26.260Z,19.65
2018-10-07T09:35:32.427Z,19.67
2018-10-07T09:37:38.547Z,19.68
2018-10-07T09:39:45.015Z,19.69
2018-10-07T09:41:51.240Z,19.69
2018-10-07T09:43:57.448Z,19.72
2018-10-07T09:46:03.675Z,19.74
2018-10-07T09:48:10.176Z,19.76
2018-10-07T09:50:16.324Z,19.82
2018-10-07T09:52:22.568Z,19.85
2018-10-07T09:54:28.695Z,19.88
2018-10-07T09:56:34.880Z,19.94
2018-10-07T09:58:41.180Z,19.99
2018-10-07T10:00:47.346Z,20.04
2018-10-07T10:02:53.551Z,20.10
2018-10-07T10:04:59.793Z,20.14
2018-10-07T10:07:05.959Z,20.19
2018-10-07T10:09:12.353Z,20.23
2018-10-07T10:11:18.599Z,20.28
2018-10-07T10:13:24.601Z,20.33
2018-10-07T10:15:30.775Z,20.37
2018-10-07T10:17:37.021Z,20.41
2018-10-07T10:20:08.221Z,20.45
2018-10-07T10:22:29.845Z,20.48
2018-10-07T10:25:32.815Z,20.54
2018-10-07T10:29:58.520Z,20.57
2018-10-07T10:32:46.159Z,20.54
2018-10-07T10:37:04.365Z,20.54
2018-10-07T10:39:21.159Z,20.54
2018-10-07T10:41:49.137Z,20.59
2018-10-07T10:44:03.674Z,20.62
2018-10-07T10:46:27.281Z,20.69
2018-10-07T10:49:48.266Z,20.76
2018-10-07T10:52:09.499Z,20.82
2018-10-07T10:54:23.417Z,20.86
2018-10-07T10:56:38.563Z,20.94
2018-10-07T11:00:03.348Z,21.01
2018-10-07T11:02:20.137Z,21.06
2018-10-07T11:04:33.911Z,21.13
2018-10-07T11:09:00.831Z,21.22
2018-10-07T11:12:19.218Z,21.28
2018-10-07T11:14:38.488Z,21.32
2018-10-07T11:19:00.446Z,21.37
2018-10-07T11:21:22.105Z,21.37
2018-10-07T11:24:10.634Z,21.42
2018-10-07T11:26:24.418Z,21.49
2018-10-07T11:29:46.277Z,21.55
2018-10-07T11:32:11.632Z,21.62
2018-10-07T11:35:35.281Z,21.67
2018-10-07T11:38:01.385Z,21.72
2018-10-07T11:40:20.201Z,21.76
2018-10-07T11:42:32.145Z,21.80
2018-10-07T11:45:52.803Z,21.86
2018-10-07T11:48:48.292Z,21.90
2018-10-07T11:51:06.401Z,21.94
2018-10-07T11:53:28.220Z,22.00
2018-10-07T11:55:34.443Z,22.06
2018-10-07T11:57:40.624Z,22.10
2018-10-07T11:59:46.730Z,22.15
2018-10-07T12:01:52.861Z,22.21
2018-10-07T12:03:59.029Z,22.24
2018-10-07T12:06:05.116Z,22.32
2018-10-07T12:08:11.379Z,22.36
2018-10-07T12:10:17.683Z,22.40
2018-10-07T12:12:23.865Z,22.43
2018-10-07T12:14:29.978Z,22.46
2018-10-07T12:16:36.201Z,22.49
2018-10-07T12:18:42.357Z,22.52
2018-10-07T12:20:48.538Z,22.57
2018-10-07T12:22:54.700Z,22.62
2018-10-07T12:25:00.888Z,22.66
2018-10-07T12:27:07.866Z,22.69
2018-10-07T12:29:14.040Z,22.73
2018-10-07T12:31:20.180Z,22.75
2018-10-07T12:33:27.057Z,22.77
2018-10-07T12:35:33.247Z,22.78
2018-10-07T12:37:39.486Z,22.82
2018-10-07T12:39:45.614Z,22.86
2018-10-07T12:41:51.805Z,22.90
2018-10-07T12:43:57.998Z,22.94
2018-10-07T12:46:04.225Z,22.99
2018-10-07T12:48:10.464Z,23.03
2018-10-07T12:50:16.697Z,23.07
2018-10-07T12:52:22.867Z,23.09
2018-10-07T12:54:30.028Z,23.11
2018-10-07T12:56:36.072Z,23.10
2018-10-07T12:58:42.276Z,23.12
2018-10-07T13:00:48.378Z,23.13
2018-10-07T13:02:54.554Z,23.14
2018-10-07T13:05:00.782Z,23.14
2018-10-07T13:07:07.272Z,23.15
2018-10-07T13:09:14.449Z,23.16
2018-10-07T13:11:21.336Z,23.18
2018-10-07T13:13:27.533Z,23.19
2018-10-07T13:15:33.709Z,23.19
2018-10-07T13:17:39.925Z,23.20
2018-10-07T13:19:46.141Z,23.21
2018-10-07T13:21:52.327Z,23.23
2018-10-07T13:23:58.477Z,23.24
2018-10-07T13:26:04.738Z,23.24
2018-10-07T13:28:10.879Z,23.24
2018-10-07T13:30:17.056Z,23.27
2018-10-07T13:32:23.238Z,23.30
2018-10-07T13:34:29.473Z,23.31
2018-10-07T13:36:35.689Z,23.35
2018-10-07T13:38:41.974Z,23.38
2018-10-07T13:40:48.100Z,23.42
2018-10-07T13:42:54.245Z,23.44
2018-10-07T13:45:00.466Z,23.47
2018-10-07T13:47:06.615Z,23.47
2018-10-07T13:49:13.338Z,23.48
2018-10-07T13:51:19.630Z,23.49
2018-10-07T13:53:26.121Z,23.49
2018-10-07T13:55:32.434Z,23.51
2018-10-07T13:57:38.654Z,23.50
2018-10-07T13:59:46.565Z,23.52
2018-10-07T14:01:52.785Z,23.52
2018-10-07T14:03:59.067Z,23.53
2018-10-07T14:06:05.224Z,23.53
2018-10-07T14:08:11.531Z,23.53
2018-10-07T14:10:17.889Z,23.53
2018-10-07T14:12:24.095Z,23.54
2018-10-07T14:14:30.370Z,23.53
2018-10-07T14:16:36.618Z,23.54
2018-10-07T14:18:42.805Z,23.55
2018-10-07T14:20:49.024Z,23.56
2018-10-07T14:22:55.206Z,23.57
2018-10-07T14:25:01.390Z,23.60
2018-10-07T14:27:07.683Z,23.63
2018-10-07T14:29:13.904Z,23.64
2018-10-07T14:31:21.177Z,23.66
2018-10-07T14:33:27.365Z,23.68
2018-10-07T14:35:34.408Z,23.69
2018-10-07T14:37:41.579Z,23.71
2018-10-07T14:39:47.887Z,23.73
2018-10-07T14:41:54.299Z,23.75
2018-10-07T14:44:00.655Z,23.76
2018-10-07T14:46:07.577Z,23.78
2018-10-07T14:48:13.804Z,23.78
2018-10-07T14:50:19.992Z,23.79
2018-10-07T14:52:26.252Z,23.81
2018-10-07T14:54:33.159Z,23.80
2018-10-07T14:56:39.777Z,23.81
2018-10-07T14:58:46.022Z,23.78
2018-10-07T15:00:52.300Z,23.80
2018-10-07T15:02:58.612Z,23.79
2018-10-07T15:05:04.924Z,23.77
2018-10-07T15:07:11.125Z,23.75
2018-10-07T15:09:17.298Z,23.73
2018-10-07T15:11:23.430Z,23.71
2018-10-07T15:13:29.683Z,23.71
2018-10-07T15:15:35.943Z,23.70
2018-10-07T15:17:42.156Z,23.68
2018-10-07T15:19:48.425Z,23.65
2018-10-07T15:21:54.621Z,23.59
2018-10-07T15:24:00.845Z,23.57
2018-10-07T15:26:07.120Z,23.52
2018-10-07T15:28:13.341Z,23.48
2018-10-07T15:30:19.538Z,23.46
2018-10-07T15:32:25.729Z,23.43
2018-10-07T15:34:31.926Z,23.40
2018-10-07T15:36:38.038Z,23.36
2018-10-07T15:38:44.443Z,23.32
2018-10-07T15:40:50.611Z,23.30
2018-10-07T15:42:56.761Z,23.28
2018-10-07T15:45:03.056Z,23.25
2018-10-07T15:47:09.335Z,23.23
2018-10-07T15:49:15.715Z,23.20
2018-10-07T15:51:21.903Z,23.16
2018-10-07T15:53:28.047Z,23.13
2018-10-07T15:55:34.392Z,23.08
2018-10-07T15:57:40.539Z,23.04
2018-10-07T15:59:46.760Z,23.02
2018-10-07T16:01:54.495Z,22.97
2018-10-07T16:04:00.644Z,22.92
2018-10-07T16:06:06.962Z,22.89
2018-10-07T16:08:13.161Z,22.84
2018-10-07T16:10:19.460Z,22.78
2018-10-07T16:12:25.715Z,22.72
2018-10-07T16:14:31.889Z,22.66
2018-10-07T16:16:38.270Z,22.60
2018-10-07T16:18:44.559Z,22.53
2018-10-07T16:20:50.794Z,22.49
2018-10-07T16:22:57.181Z,22.43
2018-10-07T16:25:03.397Z,22.36
2018-10-07T16:27:10.658Z,22.33
2018-10-07T16:29:16.965Z,22.26
2018-10-07T16:31:23.180Z,22.21
2018-10-07T16:33:29.364Z,22.18
2018-10-07T16:35:36.586Z,22.15
2018-10-07T16:37:42.804Z,22.13
2018-10-07T16:39:49.026Z,22.10
2018-10-07T16:41:55.232Z,22.08
2018-10-07T16:44:01.543Z,22.04
2018-10-07T16:46:08.105Z,21.99
2018-10-07T16:48:14.418Z,21.93
2018-10-07T16:50:20.729Z,21.88
2018-10-07T16:52:26.979Z,21.81
2018-10-07T16:54:33.197Z,21.75
2018-10-07T16:56:39.500Z,21.70
2018-10-07T16:58:45.630Z,21.68
2018-10-07T17:00:51.847Z,21.65
2018-10-07T17:02:58.087Z,21.61
2018-10-07T17:05:04.375Z,21.56
2018-10-07T17:07:10.573Z,21.53
2018-10-07T17:09:17.834Z,21.49
2018-10-07T17:11:24.013Z,21.43
2018-10-07T17:13:30.298Z,21.38
2018-10-07T17:15:36.433Z,21.32
2018-10-07T17:17:42.776Z,21.27
2018-10-07T17:19:49.164Z,21.19
2018-10-07T17:21:55.565Z,21.10
2018-10-07T17:24:01.852Z,21.03
2018-10-07T17:26:08.230Z,20.96
2018-10-07T17:28:14.504Z,20.92
2018-10-07T17:30:20.855Z,20.89
2018-10-07T17:32:27.088Z,20.85
2018-10-07T17:34:33.421Z,20.81
2018-10-07T17:36:39.672Z,20.78
2018-10-07T17:38:45.839Z,20.76
2018-10-07T17:40:52.158Z,20.71
2018-10-07T17:42:58.381Z,20.68
2018-10-07T17:45:04.671Z,20.64
2018-10-07T17:47:10.955Z,20.61
2018-10-07T17:49:17.153Z,20.53
2018-10-07T17:51:23.567Z,20.45
2018-10-07T17:53:29.849Z,20.35
2018-10-07T17:55:36.141Z,20.29
2018-10-07T17:57:42.417Z,20.24
2018-10-07T17:59:48.635Z,20.19
2018-10-07T18:01:54.823Z,20.13
2018-10-07T18:04:01.114Z,20.07
2018-10-07T18:06:08.295Z,19.98
2018-10-07T18:08:14.564Z,19.89
2018-10-07T18:10:20.852Z,19.80
2018-10-07T18:12:27.039Z,19.70
2018-10-07T18:14:33.282Z,19.62
2018-10-07T18:16:39.625Z,19.56
2018-10-07T18:18:45.911Z,19.52
2018-10-07T18:20:52.329Z,19.45
2018-10-07T18:22:58.567Z,19.38
2018-10-07T18:25:04.746Z,19.32
2018-10-07T18:27:11.132Z,19.29
2018-10-07T18:29:17.425Z,19.25
2018-10-07T18:31:23.693Z,19.19
2018-10-07T18:33:30.303Z,19.12
2018-10-07T18:35:36.512Z,19.08
2018-10-07T18:37:42.723Z,19.02
2018-10-07T18:39:48.923Z,18.99
2018-10-07T18:41:55.081Z,18.94
2018-10-07T18:44:01.301Z,18.93
2018-10-07T18:46:07.572Z,18.94
2018-10-07T18:48:13.800Z,18.95
2018-10-07T18:50:20.088Z,18.93
2018-10-07T18:52:26.345Z,18.89
2018-10-07T18:54:32.780Z,18.89
2018-10-07T18:56:38.978Z,18.88
2018-10-07T18:58:45.325Z,18.88
2018-10-07T19:00:51.678Z,18.87
2018-10-07T19:02:58.065Z,18.86
2018-10-07T19:05:04.335Z,18.85
2018-10-07T19:07:11.610Z,18.84
2018-10-07T19:09:18.005Z,18.83
2018-10-07T19:11:24.584Z,18.80
2018-10-07T19:13:30.815Z,18.70
2018-10-07T19:15:37.054Z,18.63
2018-10-07T19:17:43.363Z,18.62
2018-10-07T19:19:49.700Z,18.61
2018-10-07T19:21:56.786Z,18.60
2018-10-07T19:24:03.221Z,18.60
2018-10-07T19:26:10.275Z,18.57
2018-10-07T19:28:16.604Z,18.52
2018-10-07T19:30:22.948Z,18.47
2018-10-07T19:32:29.395Z,18.43
2018-10-07T19:34:35.691Z,18.43
2018-10-07T19:36:42.140Z,18.40
2018-10-07T19:38:48.375Z,18.40
2018-10-07T19:40:54.860Z,18.39
2018-10-07T19:43:01.279Z,18.39
2018-10-07T19:45:07.761Z,18.39
2018-10-07T19:47:14.108Z,18.37
2018-10-07T19:49:20.556Z,18.35
2018-10-07T19:51:26.826Z,18.33
2018-10-07T19:53:33.095Z,18.28
2018-10-07T19:55:39.350Z,18.27
2018-10-07T19:57:45.632Z,18.21
2018-10-07T19:59:52.010Z,18.19
2018-10-07T20:01:58.408Z,18.19
2018-10-07T20:04:05.060Z,18.19
2018-10-07T20:06:11.371Z,18.18
2018-10-07T20:08:17.895Z,18.18
2018-10-07T20:10:24.139Z,18.12
2018-10-07T20:12:30.978Z,18.06
2018-10-07T20:14:37.800Z,18.02
2018-10-07T20:16:44.421Z,18.00
2018-10-07T20:18:50.745Z,18.00
2018-10-07T20:20:57.068Z,18.01
2018-10-07T20:23:03.630Z,18.02
2018-10-07T20:25:10.076Z,18.02
2018-10-07T20:27:16.379Z,18.00
2018-10-07T20:29:22.890Z,18.00
2018-10-07T20:31:28.441Z,17.97
2018-10-07T20:33:34.988Z,17.95
2018-10-07T20:35:41.309Z,17.91
2018-10-07T20:37:47.744Z,17.89
2018-10-07T20:39:53.960Z,17.87
2018-10-07T20:42:00.268Z,17.81
2018-10-07T20:44:06.708Z,17.80
2018-10-07T20:46:13.000Z,17.80
2018-10-07T20:48:19.126Z,17.79
2018-10-07T20:50:25.590Z,17.77
2018-10-07T20:52:31.740Z,17.78
2018-10-07T20:54:38.059Z,17.75
2018-10-07T20:56:44.280Z,17.73
2018-10-07T20:58:50.477Z,17.72
2018-10-07T21:00:56.709Z,17.70
2018-10-07T21:03:03.020Z,17.67
2018-10-07T21:05:09.296Z,17.63
2018-10-07T21:07:15.552Z,17.54
2018-10-07T21:09:21.803Z,17.44
2018-10-07T21:11:28.024Z,17.31
2018-10-07T21:13:34.173Z,17.22
2018-10-07T21:15:40.438Z,17.13
2018-10-07T21:17:46.613Z,17.06
2018-10-07T21:19:52.781Z,17.00
2018-10-07T21:21:58.936Z,16.93
2018-10-07T21:24:05.140Z,16.86
2018-10-07T21:26:11.266Z,16.86
2018-10-07T21:28:17.458Z,16.84
2018-10-07T21:30:24.310Z,16.80
2018-10-07T21:32:30.551Z,16.83
2018-10-07T21:34:36.700Z,16.87
2018-10-07T21:36:42.855Z,16.87
2018-10-07T21:38:48.955Z,16.83
2018-10-07T21:40:55.146Z,16.78
2018-10-07T21:43:01.339Z,16.77
2018-10-07T21:45:07.679Z,16.80
2018-10-07T21:47:13.981Z,16.81
2018-10-07T21:49:20.168Z,16.80
2018-10-07T21:51:26.374Z,16.80
2018-10-07T21:53:32.666Z,16.83
2018-10-07T21:55:38.945Z,16.86
2018-10-07T21:57:45.153Z,16.85
2018-10-07T21:59:51.365Z,16.80
2018-10-07T22:01:57.782Z,16.73
2018-10-07T22:04:03.993Z,16.67
2018-10-07T22:06:11.000Z,16.63
2018-10-07T22:08:17.184Z,16.59
2018-10-07T22:10:23.360Z,16.56
2018-10-07T22:12:29.675Z,16.53
2018-10-07T22:14:35.851Z,16.47
2018-10-07T22:16:41.988Z,16.44
2018-10-07T22:18:48.187Z,16.44
2018-10-07T22:20:54.389Z,16.42
2018-10-07T22:23:00.623Z,16.42
2018-10-07T22:25:06.856Z,16.36
2018-10-07T22:27:12.971Z,16.40
2018-10-07T22:29:19.038Z,16.34
2018-10-07T22:31:25.201Z,16.27
2018-10-07T22:33:31.344Z,16.20
2018-10-07T22:35:38.488Z,16.12
2018-10-07T22:37:44.597Z,16.01
2018-10-07T22:39:50.716Z,15.92
2018-10-07T22:41:56.833Z,15.81
2018-10-07T22:44:03.023Z,15.75
2018-10-07T22:46:09.480Z,15.69
2018-10-07T22:48:15.605Z,15.69
2018-10-07T22:50:21.772Z,15.68
2018-10-07T22:52:27.909Z,15.68
2018-10-07T22:54:34.013Z,15.64
2018-10-07T22:56:40.702Z,15.59
2018-10-07T22:58:46.860Z,15.53
2018-10-07T23:00:52.941Z,15.48
2018-10-07T23:02:59.091Z,15.47
2018-10-07T23:05:06.210Z,15.43
2018-10-07T23:07:12.360Z,15.41
2018-10-07T23:09:18.521Z,15.40
2018-10-07T23:11:25.522Z,15.42
2018-10-07T23:13:31.756Z,15.44
2018-10-07T23:15:37.967Z,15.46
2018-10-07T23:17:44.089Z,15.47
2018-10-07T23:19:50.236Z,15.47
2018-10-07T23:21:56.333Z,15.46
2018-10-07T23:24:02.421Z,15.45
2018-10-07T23:26:08.520Z,15.46
2018-10-07T23:28:14.694Z,15.48
2018-10-07T23:30:20.936Z,15.53
2018-10-07T23:32:27.112Z,15.55
2018-10-07T23:34:33.237Z,15.60
2018-10-07T23:36:39.407Z,15.63
2018-10-07T23:38:45.541Z,15.65
2018-10-07T23:40:53.203Z,15.67
2018-10-07T23:42:59.325Z,15.67
2018-10-07T23:45:05.863Z,15.66
2018-10-07T23:47:12.014Z,15.67
2018-10-07T23:49:18.153Z,15.68
2018-10-07T23:51:24.210Z,15.70
2018-10-07T23:53:30.325Z,15.70
2018-10-07T23:55:36.484Z,15.71
2018-10-07T23:57:42.576Z,15.70
2018-10-07T23:59:48.833Z,15.66
